sensor_id;sensor_type;location;lat;lon;timestamp;temperature;humidity
16744;DHT22;71724;-33.900;151.182;2024-02-23T00:01:08;29.00;66.40
16744;DHT22;71724;-33.900;151.182;2024-02-23T00:03:38;29.00;64.90
16744;DHT22;71724;-33.900;151.182;2024-02-23T00:06:06;29.00;65.60
16744;DHT22;71724;-33.900;151.182;2024-02-23T00:08:35;29.00;64.30
16744;DHT22;71724;-33.900;151.182;2024-02-23T00:11:04;29.10;64.50
16744;DHT22;71724;-33.900;151.182;2024-02-23T00:13:32;29.20;64.70
16744;DHT22;71724;-33.900;151.182;2024-02-23T00:15:59;29.20;64.30
16744;DHT22;71724;-33.900;151.182;2024-02-23T00:18:27;29.20;64.00
16744;DHT22;71724;-33.900;151.182;2024-02-23T00:20:54;29.20;62.30
16744;DHT22;71724;-33.900;151.182;2024-02-23T00:23:23;29.30;62.90
16744;DHT22;71724;-33.900;151.182;2024-02-23T00:25:50;29.30;63.20
16744;DHT22;71724;-33.900;151.182;2024-02-23T00:28:17;29.40;63.90
16744;DHT22;71724;-33.900;151.182;2024-02-23T00:30:45;29.40;62.70
16744;DHT22;71724;-33.900;151.182;2024-02-23T00:33:12;29.40;62.70
16744;DHT22;71724;-33.900;151.182;2024-02-23T00:35:39;29.50;62.70
16744;DHT22;71724;-33.900;151.182;2024-02-23T00:38:07;29.60;62.30
16744;DHT22;71724;-33.900;151.182;2024-02-23T00:40:34;29.60;62.10
16744;DHT22;71724;-33.900;151.182;2024-02-23T00:43:02;29.70;61.80
16744;DHT22;71724;-33.900;151.182;2024-02-23T00:45:29;29.70;61.50
16744;DHT22;71724;-33.900;151.182;2024-02-23T00:47:57;29.80;61.40
16744;DHT22;71724;-33.900;151.182;2024-02-23T00:50:24;29.80;60.80
16744;DHT22;71724;-33.900;151.182;2024-02-23T00:52:55;29.80;60.30
16744;DHT22;71724;-33.900;151.182;2024-02-23T00:55:22;29.90;59.90
16744;DHT22;71724;-33.900;151.182;2024-02-23T00:57:51;30.00;59.10
16744;DHT22;71724;-33.900;151.182;2024-02-23T01:00:19;30.10;59.80
16744;DHT22;71724;-33.900;151.182;2024-02-23T01:02:46;30.20;60.00
16744;DHT22;71724;-33.900;151.182;2024-02-23T01:05:14;30.30;60.20
16744;DHT22;71724;-33.900;151.182;2024-02-23T01:07:41;30.30;59.20
16744;DHT22;71724;-33.900;151.182;2024-02-23T01:10:08;30.30;58.70
16744;DHT22;71724;-33.900;151.182;2024-02-23T01:12:36;30.40;58.80
16744;DHT22;71724;-33.900;151.182;2024-02-23T01:15:04;30.50;58.10
16744;DHT22;71724;-33.900;151.182;2024-02-23T01:17:31;30.60;57.90
16744;DHT22;71724;-33.900;151.182;2024-02-23T01:19:58;30.70;57.90
16744;DHT22;71724;-33.900;151.182;2024-02-23T01:22:26;30.80;57.50
16744;DHT22;71724;-33.900;151.182;2024-02-23T01:24:53;30.80;58.10
16744;DHT22;71724;-33.900;151.182;2024-02-23T01:27:21;30.80;57.90
16744;DHT22;71724;-33.900;151.182;2024-02-23T01:29:48;30.90;57.50
16744;DHT22;71724;-33.900;151.182;2024-02-23T01:32:16;30.90;56.50
16744;DHT22;71724;-33.900;151.182;2024-02-23T01:34:43;31.00;57.40
16744;DHT22;71724;-33.900;151.182;2024-02-23T01:37:10;31.10;56.70
16744;DHT22;71724;-33.900;151.182;2024-02-23T01:39:38;31.20;56.80
16744;DHT22;71724;-33.900;151.182;2024-02-23T01:42:05;31.30;56.70
16744;DHT22;71724;-33.900;151.182;2024-02-23T01:44:33;31.30;55.10
16744;DHT22;71724;-33.900;151.182;2024-02-23T01:47:00;31.40;55.70
16744;DHT22;71724;-33.900;151.182;2024-02-23T01:49:27;31.50;55.60
16744;DHT22;71724;-33.900;151.182;2024-02-23T01:51:58;31.60;53.70
16744;DHT22;71724;-33.900;151.182;2024-02-23T01:54:25;31.70;54.90
16744;DHT22;71724;-33.900;151.182;2024-02-23T01:56:56;31.80;54.80
16744;DHT22;71724;-33.900;151.182;2024-02-23T01:59:24;31.80;54.40
16744;DHT22;71724;-33.900;151.182;2024-02-23T02:01:52;31.90;54.00
16744;DHT22;71724;-33.900;151.182;2024-02-23T02:04:20;32.00;52.80
16744;DHT22;71724;-33.900;151.182;2024-02-23T02:06:48;32.10;53.20
16744;DHT22;71724;-33.900;151.182;2024-02-23T02:09:16;32.10;52.40
16744;DHT22;71724;-33.900;151.182;2024-02-23T02:11:50;32.20;52.70
16744;DHT22;71724;-33.900;151.182;2024-02-23T02:14:17;32.20;52.10
16744;DHT22;71724;-33.900;151.182;2024-02-23T02:16:45;32.30;52.70
16744;DHT22;71724;-33.900;151.182;2024-02-23T02:19:14;32.30;52.50
16744;DHT22;71724;-33.900;151.182;2024-02-23T02:21:42;32.30;51.80
16744;DHT22;71724;-33.900;151.182;2024-02-23T02:24:09;32.40;51.80
16744;DHT22;71724;-33.900;151.182;2024-02-23T02:26:37;32.40;51.80
16744;DHT22;71724;-33.900;151.182;2024-02-23T02:29:05;32.50;52.50
16744;DHT22;71724;-33.900;151.182;2024-02-23T02:31:33;32.40;51.20
16744;DHT22;71724;-33.900;151.182;2024-02-23T02:34:04;32.40;51.90
16744;DHT22;71724;-33.900;151.182;2024-02-23T02:36:31;32.50;51.20
16744;DHT22;71724;-33.900;151.182;2024-02-23T02:38:59;32.50;51.30
16744;DHT22;71724;-33.900;151.182;2024-02-23T02:41:29;32.60;52.10
16744;DHT22;71724;-33.900;151.182;2024-02-23T02:43:57;32.70;51.10
16744;DHT22;71724;-33.900;151.182;2024-02-23T02:46:24;32.70;50.80
16744;DHT22;71724;-33.900;151.182;2024-02-23T02:48:52;32.70;51.20
16744;DHT22;71724;-33.900;151.182;2024-02-23T02:51:19;32.80;50.90
16744;DHT22;71724;-33.900;151.182;2024-02-23T02:53:47;32.80;49.50
16744;DHT22;71724;-33.900;151.182;2024-02-23T02:56:14;32.80;50.30
16744;DHT22;71724;-33.900;151.182;2024-02-23T02:58:41;32.80;50.10
16744;DHT22;71724;-33.900;151.182;2024-02-23T03:01:09;32.90;49.00
16744;DHT22;71724;-33.900;151.182;2024-02-23T03:03:36;32.90;49.80
16744;DHT22;71724;-33.900;151.182;2024-02-23T03:06:04;32.90;49.80
16744;DHT22;71724;-33.900;151.182;2024-02-23T03:08:33;33.00;48.80
16744;DHT22;71724;-33.900;151.182;2024-02-23T03:11:00;33.00;50.20
16744;DHT22;71724;-33.900;151.182;2024-02-23T03:13:27;33.10;49.60
16744;DHT22;71724;-33.900;151.182;2024-02-23T03:15:55;33.20;49.40
16744;DHT22;71724;-33.900;151.182;2024-02-23T03:18:22;33.20;49.90
16744;DHT22;71724;-33.900;151.182;2024-02-23T03:20:50;33.20;49.10
16744;DHT22;71724;-33.900;151.182;2024-02-23T03:23:17;33.20;47.20
16744;DHT22;71724;-33.900;151.182;2024-02-23T03:25:44;33.20;47.00
16744;DHT22;71724;-33.900;151.182;2024-02-23T03:28:12;33.30;47.70
16744;DHT22;71724;-33.900;151.182;2024-02-23T03:30:39;33.30;47.70
16744;DHT22;71724;-33.900;151.182;2024-02-23T03:33:06;33.30;48.30
16744;DHT22;71724;-33.900;151.182;2024-02-23T03:35:34;33.50;47.20
16744;DHT22;71724;-33.900;151.182;2024-02-23T03:38:01;33.70;47.20
16744;DHT22;71724;-33.900;151.182;2024-02-23T03:40:29;33.70;47.30
16744;DHT22;71724;-33.900;151.182;2024-02-23T03:42:56;33.80;47.40
16744;DHT22;71724;-33.900;151.182;2024-02-23T03:45:23;33.80;47.00
16744;DHT22;71724;-33.900;151.182;2024-02-23T03:47:51;33.80;48.10
16744;DHT22;71724;-33.900;151.182;2024-02-23T03:50:18;33.80;47.80
16744;DHT22;71724;-33.900;151.182;2024-02-23T03:52:45;33.80;47.40
16744;DHT22;71724;-33.900;151.182;2024-02-23T03:55:13;33.80;47.40
16744;DHT22;71724;-33.900;151.182;2024-02-23T03:57:40;33.80;46.70
16744;DHT22;71724;-33.900;151.182;2024-02-23T04:00:08;33.80;46.70
16744;DHT22;71724;-33.900;151.182;2024-02-23T04:02:36;33.80;45.80
16744;DHT22;71724;-33.900;151.182;2024-02-23T04:05:04;33.80;46.40
16744;DHT22;71724;-33.900;151.182;2024-02-23T04:07:32;33.80;46.40
16744;DHT22;71724;-33.900;151.182;2024-02-23T04:09:59;33.80;46.30
16744;DHT22;71724;-33.900;151.182;2024-02-23T04:12:27;33.80;46.60
16744;DHT22;71724;-33.900;151.182;2024-02-23T04:14:54;33.80;46.90
16744;DHT22;71724;-33.900;151.182;2024-02-23T04:17:21;33.80;46.70
16744;DHT22;71724;-33.900;151.182;2024-02-23T04:19:49;33.80;47.20
16744;DHT22;71724;-33.900;151.182;2024-02-23T04:22:16;33.70;46.70
16744;DHT22;71724;-33.900;151.182;2024-02-23T04:24:43;33.70;47.20
16744;DHT22;71724;-33.900;151.182;2024-02-23T04:27:11;33.60;47.90
16744;DHT22;71724;-33.900;151.182;2024-02-23T04:29:39;33.70;48.60
16744;DHT22;71724;-33.900;151.182;2024-02-23T04:32:06;33.70;49.00
16744;DHT22;71724;-33.900;151.182;2024-02-23T04:34:34;33.60;48.20
16744;DHT22;71724;-33.900;151.182;2024-02-23T04:37:02;33.60;47.70
16744;DHT22;71724;-33.900;151.182;2024-02-23T04:39:30;33.60;48.00
16744;DHT22;71724;-33.900;151.182;2024-02-23T04:41:57;33.60;47.20
16744;DHT22;71724;-33.900;151.182;2024-02-23T04:44:24;33.60;46.40
16744;DHT22;71724;-33.900;151.182;2024-02-23T04:46:52;33.70;46.00
16744;DHT22;71724;-33.900;151.182;2024-02-23T04:49:19;33.70;45.70
16744;DHT22;71724;-33.900;151.182;2024-02-23T04:51:47;33.70;46.40
16744;DHT22;71724;-33.900;151.182;2024-02-23T04:54:14;33.80;46.20
16744;DHT22;71724;-33.900;151.182;2024-02-23T04:56:41;33.90;46.70
16744;DHT22;71724;-33.900;151.182;2024-02-23T04:59:09;33.90;47.20
16744;DHT22;71724;-33.900;151.182;2024-02-23T05:01:37;34.00;46.80
16744;DHT22;71724;-33.900;151.182;2024-02-23T05:04:04;34.10;45.90
16744;DHT22;71724;-33.900;151.182;2024-02-23T05:06:32;34.30;44.90
16744;DHT22;71724;-33.900;151.182;2024-02-23T05:08:59;34.30;45.00
16744;DHT22;71724;-33.900;151.182;2024-02-23T05:11:27;34.30;44.90
16744;DHT22;71724;-33.900;151.182;2024-02-23T05:13:55;34.40;43.90
16744;DHT22;71724;-33.900;151.182;2024-02-23T05:16:22;34.30;44.50
16744;DHT22;71724;-33.900;151.182;2024-02-23T05:18:50;34.30;45.40
16744;DHT22;71724;-33.900;151.182;2024-02-23T05:21:17;34.30;44.90
16744;DHT22;71724;-33.900;151.182;2024-02-23T05:23:44;34.30;45.10
16744;DHT22;71724;-33.900;151.182;2024-02-23T05:26:13;34.30;45.10
16744;DHT22;71724;-33.900;151.182;2024-02-23T05:28:40;34.30;43.50
16744;DHT22;71724;-33.900;151.182;2024-02-23T05:31:09;34.40;44.00
16744;DHT22;71724;-33.900;151.182;2024-02-23T05:33:37;34.10;46.00
16744;DHT22;71724;-33.900;151.182;2024-02-23T05:36:05;33.50;46.40
16744;DHT22;71724;-33.900;151.182;2024-02-23T05:38:32;33.00;48.10
16744;DHT22;71724;-33.900;151.182;2024-02-23T05:41:00;32.50;48.30
16744;DHT22;71724;-33.900;151.182;2024-02-23T05:43:27;31.80;49.40
16744;DHT22;71724;-33.900;151.182;2024-02-23T05:45:55;31.40;51.20
16744;DHT22;71724;-33.900;151.182;2024-02-23T05:48:42;31.10;52.40
16744;DHT22;71724;-33.900;151.182;2024-02-23T05:51:10;30.80;54.30
16744;DHT22;71724;-33.900;151.182;2024-02-23T05:53:37;30.70;54.70
16744;DHT22;71724;-33.900;151.182;2024-02-23T05:56:05;30.40;55.40
16744;DHT22;71724;-33.900;151.182;2024-02-23T05:58:32;30.30;56.20
16744;DHT22;71724;-33.900;151.182;2024-02-23T06:00:59;30.30;57.70
16744;DHT22;71724;-33.900;151.182;2024-02-23T06:03:27;30.10;58.00
16744;DHT22;71724;-33.900;151.182;2024-02-23T06:05:54;29.90;58.50
16744;DHT22;71724;-33.900;151.182;2024-02-23T06:08:21;29.80;59.20
16744;DHT22;71724;-33.900;151.182;2024-02-23T06:10:49;29.70;60.10
16744;DHT22;71724;-33.900;151.182;2024-02-23T06:13:17;29.60;60.20
16744;DHT22;71724;-33.900;151.182;2024-02-23T06:15:45;29.50;60.80
16744;DHT22;71724;-33.900;151.182;2024-02-23T06:18:12;29.50;61.50
16744;DHT22;71724;-33.900;151.182;2024-02-23T06:20:39;29.50;61.50
16744;DHT22;71724;-33.900;151.182;2024-02-23T06:23:07;29.40;61.80
16744;DHT22;71724;-33.900;151.182;2024-02-23T06:25:35;29.40;62.20
16744;DHT22;71724;-33.900;151.182;2024-02-23T06:28:02;29.30;62.40
16744;DHT22;71724;-33.900;151.182;2024-02-23T06:30:30;29.30;62.90
16744;DHT22;71724;-33.900;151.182;2024-02-23T06:32:57;29.30;63.00
16744;DHT22;71724;-33.900;151.182;2024-02-23T06:35:24;29.30;63.60
16744;DHT22;71724;-33.900;151.182;2024-02-23T06:37:52;29.30;63.70
16744;DHT22;71724;-33.900;151.182;2024-02-23T06:40:19;29.30;63.90
16744;DHT22;71724;-33.900;151.182;2024-02-23T06:42:47;29.30;64.00
16744;DHT22;71724;-33.900;151.182;2024-02-23T06:45:14;29.10;63.70
16744;DHT22;71724;-33.900;151.182;2024-02-23T06:47:41;29.00;64.70
16744;DHT22;71724;-33.900;151.182;2024-02-23T06:50:11;28.80;65.60
16744;DHT22;71724;-33.900;151.182;2024-02-23T06:52:38;28.70;66.10
16744;DHT22;71724;-33.900;151.182;2024-02-23T06:55:07;28.60;66.80
16744;DHT22;71724;-33.900;151.182;2024-02-23T06:57:36;28.40;68.70
16744;DHT22;71724;-33.900;151.182;2024-02-23T07:00:05;28.30;70.30
16744;DHT22;71724;-33.900;151.182;2024-02-23T07:02:34;28.10;70.80
16744;DHT22;71724;-33.900;151.182;2024-02-23T07:05:03;27.80;71.90
16744;DHT22;71724;-33.900;151.182;2024-02-23T07:07:35;27.70;73.40
16744;DHT22;71724;-33.900;151.182;2024-02-23T07:10:02;27.50;73.80
16744;DHT22;71724;-33.900;151.182;2024-02-23T07:12:30;27.50;74.70
16744;DHT22;71724;-33.900;151.182;2024-02-23T07:14:57;27.40;75.30
16744;DHT22;71724;-33.900;151.182;2024-02-23T07:17:25;27.30;75.90
16744;DHT22;71724;-33.900;151.182;2024-02-23T07:19:52;27.10;75.90
16744;DHT22;71724;-33.900;151.182;2024-02-23T07:22:20;26.90;76.40
16744;DHT22;71724;-33.900;151.182;2024-02-23T07:24:48;26.80;77.00
16744;DHT22;71724;-33.900;151.182;2024-02-23T07:27:16;26.50;77.20
16744;DHT22;71724;-33.900;151.182;2024-02-23T07:29:46;26.30;78.00
16744;DHT22;71724;-33.900;151.182;2024-02-23T07:32:13;26.20;79.30
16744;DHT22;71724;-33.900;151.182;2024-02-23T07:34:40;26.10;79.60
16744;DHT22;71724;-33.900;151.182;2024-02-23T07:37:08;26.10;81.00
16744;DHT22;71724;-33.900;151.182;2024-02-23T07:39:35;26.10;81.00
16744;DHT22;71724;-33.900;151.182;2024-02-23T07:42:03;26.00;81.00
16744;DHT22;71724;-33.900;151.182;2024-02-23T07:44:32;25.90;81.00
16744;DHT22;71724;-33.900;151.182;2024-02-23T07:47:00;25.90;80.90
16744;DHT22;71724;-33.900;151.182;2024-02-23T07:49:27;25.80;81.10
16744;DHT22;71724;-33.900;151.182;2024-02-23T07:51:55;25.70;81.90
16744;DHT22;71724;-33.900;151.182;2024-02-23T07:54:22;25.80;82.10
16744;DHT22;71724;-33.900;151.182;2024-02-23T07:56:49;25.70;82.10
16744;DHT22;71724;-33.900;151.182;2024-02-23T07:59:17;25.70;82.60
16744;DHT22;71724;-33.900;151.182;2024-02-23T08:01:44;25.60;82.90
16744;DHT22;71724;-33.900;151.182;2024-02-23T08:04:11;25.70;83.40
16744;DHT22;71724;-33.900;151.182;2024-02-23T08:06:41;25.60;83.10
16744;DHT22;71724;-33.900;151.182;2024-02-23T08:09:09;25.60;83.50
16744;DHT22;71724;-33.900;151.182;2024-02-23T08:11:37;25.60;83.60
16744;DHT22;71724;-33.900;151.182;2024-02-23T08:14:04;25.70;83.50
16744;DHT22;71724;-33.900;151.182;2024-02-23T08:16:31;25.70;83.60
16744;DHT22;71724;-33.900;151.182;2024-02-23T08:18:59;25.70;83.50
16744;DHT22;71724;-33.900;151.182;2024-02-23T08:21:27;25.70;83.40
16744;DHT22;71724;-33.900;151.182;2024-02-23T08:23:55;25.70;83.40
16744;DHT22;71724;-33.900;151.182;2024-02-23T08:26:22;25.70;83.40
16744;DHT22;71724;-33.900;151.182;2024-02-23T08:28:49;25.70;83.20
16744;DHT22;71724;-33.900;151.182;2024-02-23T08:31:17;25.60;83.30
16744;DHT22;71724;-33.900;151.182;2024-02-23T08:33:44;25.60;83.40
16744;DHT22;71724;-33.900;151.182;2024-02-23T08:36:11;25.60;83.40
16744;DHT22;71724;-33.900;151.182;2024-02-23T08:38:39;25.50;83.80
16744;DHT22;71724;-33.900;151.182;2024-02-23T08:41:06;25.40;83.90
16744;DHT22;71724;-33.900;151.182;2024-02-23T08:43:34;25.30;84.00
16744;DHT22;71724;-33.900;151.182;2024-02-23T08:46:02;25.30;84.00
16744;DHT22;71724;-33.900;151.182;2024-02-23T08:48:30;25.30;84.00
16744;DHT22;71724;-33.900;151.182;2024-02-23T08:50:57;25.20;84.10
16744;DHT22;71724;-33.900;151.182;2024-02-23T08:53:24;25.20;84.10
16744;DHT22;71724;-33.900;151.182;2024-02-23T08:55:52;25.20;84.20
16744;DHT22;71724;-33.900;151.182;2024-02-23T08:58:20;25.20;84.30
16744;DHT22;71724;-33.900;151.182;2024-02-23T09:00:47;25.20;84.40
16744;DHT22;71724;-33.900;151.182;2024-02-23T09:03:14;25.10;84.50
16744;DHT22;71724;-33.900;151.182;2024-02-23T09:05:42;25.10;84.40
16744;DHT22;71724;-33.900;151.182;2024-02-23T09:08:10;25.10;84.40
16744;DHT22;71724;-33.900;151.182;2024-02-23T09:10:38;25.10;84.30
16744;DHT22;71724;-33.900;151.182;2024-02-23T09:13:05;25.10;84.10
16744;DHT22;71724;-33.900;151.182;2024-02-23T09:15:32;25.00;84.20
16744;DHT22;71724;-33.900;151.182;2024-02-23T09:18:00;25.00;84.20
16744;DHT22;71724;-33.900;151.182;2024-02-23T09:20:27;24.90;84.20
16744;DHT22;71724;-33.900;151.182;2024-02-23T09:22:55;24.90;84.30
16744;DHT22;71724;-33.900;151.182;2024-02-23T09:25:23;24.90;84.20
16744;DHT22;71724;-33.900;151.182;2024-02-23T09:27:50;24.90;84.40
16744;DHT22;71724;-33.900;151.182;2024-02-23T09:30:18;24.80;84.30
16744;DHT22;71724;-33.900;151.182;2024-02-23T09:32:46;24.80;84.30
16744;DHT22;71724;-33.900;151.182;2024-02-23T09:35:13;24.80;84.40
16744;DHT22;71724;-33.900;151.182;2024-02-23T09:37:41;24.80;84.30
16744;DHT22;71724;-33.900;151.182;2024-02-23T09:40:11;24.80;84.40
16744;DHT22;71724;-33.900;151.182;2024-02-23T09:42:39;24.80;84.60
16744;DHT22;71724;-33.900;151.182;2024-02-23T09:45:07;24.80;84.60
16744;DHT22;71724;-33.900;151.182;2024-02-23T09:47:35;24.80;84.50
16744;DHT22;71724;-33.900;151.182;2024-02-23T09:50:04;24.80;84.40
16744;DHT22;71724;-33.900;151.182;2024-02-23T09:52:33;24.80;84.30
16744;DHT22;71724;-33.900;151.182;2024-02-23T09:55:00;24.80;84.30
16744;DHT22;71724;-33.900;151.182;2024-02-23T09:57:30;24.70;84.40
16744;DHT22;71724;-33.900;151.182;2024-02-23T09:59:58;24.70;84.50
16744;DHT22;71724;-33.900;151.182;2024-02-23T10:02:26;24.70;84.60
16744;DHT22;71724;-33.900;151.182;2024-02-23T10:04:54;24.70;84.60
16744;DHT22;71724;-33.900;151.182;2024-02-23T10:07:24;24.70;84.70
16744;DHT22;71724;-33.900;151.182;2024-02-23T10:09:52;24.70;84.70
16744;DHT22;71724;-33.900;151.182;2024-02-23T10:12:20;24.70;84.70
16744;DHT22;71724;-33.900;151.182;2024-02-23T10:14:47;24.70;84.80
16744;DHT22;71724;-33.900;151.182;2024-02-23T10:17:14;24.70;84.80
16744;DHT22;71724;-33.900;151.182;2024-02-23T10:19:42;24.60;84.80
16744;DHT22;71724;-33.900;151.182;2024-02-23T10:22:09;24.60;84.90
16744;DHT22;71724;-33.900;151.182;2024-02-23T10:24:37;24.60;84.90
16744;DHT22;71724;-33.900;151.182;2024-02-23T10:27:04;24.60;84.90
16744;DHT22;71724;-33.900;151.182;2024-02-23T10:29:32;24.60;84.90
16744;DHT22;71724;-33.900;151.182;2024-02-23T10:32:01;24.60;84.90
16744;DHT22;71724;-33.900;151.182;2024-02-23T10:34:30;24.60;84.80
16744;DHT22;71724;-33.900;151.182;2024-02-23T10:36:58;24.60;84.70
16744;DHT22;71724;-33.900;151.182;2024-02-23T10:39:29;24.60;84.70
16744;DHT22;71724;-33.900;151.182;2024-02-23T10:42:03;24.50;84.80
16744;DHT22;71724;-33.900;151.182;2024-02-23T10:44:33;24.50;84.80
16744;DHT22;71724;-33.900;151.182;2024-02-23T10:47:02;24.50;84.90
16744;DHT22;71724;-33.900;151.182;2024-02-23T10:49:30;24.50;85.00
16744;DHT22;71724;-33.900;151.182;2024-02-23T10:51:58;24.40;85.00
16744;DHT22;71724;-33.900;151.182;2024-02-23T10:54:25;24.40;85.00
16744;DHT22;71724;-33.900;151.182;2024-02-23T10:56:53;24.40;85.00
16744;DHT22;71724;-33.900;151.182;2024-02-23T10:59:22;24.30;85.00
16744;DHT22;71724;-33.900;151.182;2024-02-23T11:01:53;24.30;85.10
16744;DHT22;71724;-33.900;151.182;2024-02-23T11:04:24;24.30;84.90
16744;DHT22;71724;-33.900;151.182;2024-02-23T11:06:56;24.20;85.00
16744;DHT22;71724;-33.900;151.182;2024-02-23T11:09:25;24.10;85.00
16744;DHT22;71724;-33.900;151.182;2024-02-23T11:11:57;24.10;85.10
16744;DHT22;71724;-33.900;151.182;2024-02-23T11:14:32;24.10;85.30
16744;DHT22;71724;-33.900;151.182;2024-02-23T11:17:02;24.10;85.20
16744;DHT22;71724;-33.900;151.182;2024-02-23T11:19:37;24.00;85.20
16744;DHT22;71724;-33.900;151.182;2024-02-23T11:22:05;24.00;85.40
16744;DHT22;71724;-33.900;151.182;2024-02-23T11:24:43;23.90;85.30
16744;DHT22;71724;-33.900;151.182;2024-02-23T11:27:16;23.90;85.50
16744;DHT22;71724;-33.900;151.182;2024-02-23T11:29:47;23.90;85.60
16744;DHT22;71724;-33.900;151.182;2024-02-23T11:32:18;23.90;85.70
16744;DHT22;71724;-33.900;151.182;2024-02-23T11:34:55;23.90;85.80
16744;DHT22;71724;-33.900;151.182;2024-02-23T11:37:23;23.90;85.80
16744;DHT22;71724;-33.900;151.182;2024-02-23T11:39:51;23.90;85.70
16744;DHT22;71724;-33.900;151.182;2024-02-23T11:42:18;23.90;85.80
16744;DHT22;71724;-33.900;151.182;2024-02-23T11:44:46;23.90;85.80
16744;DHT22;71724;-33.900;151.182;2024-02-23T11:47:14;23.90;85.80
16744;DHT22;71724;-33.900;151.182;2024-02-23T11:49:43;23.90;85.90
16744;DHT22;71724;-33.900;151.182;2024-02-23T11:52:10;23.90;85.80
16744;DHT22;71724;-33.900;151.182;2024-02-23T11:54:38;23.90;85.80
16744;DHT22;71724;-33.900;151.182;2024-02-23T11:57:06;23.90;85.80
16744;DHT22;71724;-33.900;151.182;2024-02-23T11:59:34;23.90;85.80
16744;DHT22;71724;-33.900;151.182;2024-02-23T12:02:01;23.90;85.80
16744;DHT22;71724;-33.900;151.182;2024-02-23T12:04:28;23.80;85.80
16744;DHT22;71724;-33.900;151.182;2024-02-23T12:06:56;23.80;85.70
16744;DHT22;71724;-33.900;151.182;2024-02-23T12:09:24;23.70;85.80
16744;DHT22;71724;-33.900;151.182;2024-02-23T12:11:52;23.70;85.90
16744;DHT22;71724;-33.900;151.182;2024-02-23T12:14:19;23.70;86.00
16744;DHT22;71724;-33.900;151.182;2024-02-23T12:16:47;23.70;85.90
16744;DHT22;71724;-33.900;151.182;2024-02-23T12:19:16;23.70;85.90
16744;DHT22;71724;-33.900;151.182;2024-02-23T12:21:47;23.70;86.00
16744;DHT22;71724;-33.900;151.182;2024-02-23T12:24:14;23.60;86.00
16744;DHT22;71724;-33.900;151.182;2024-02-23T12:26:42;23.60;85.90
16744;DHT22;71724;-33.900;151.182;2024-02-23T12:29:10;23.50;86.00
16744;DHT22;71724;-33.900;151.182;2024-02-23T12:31:37;23.60;86.20
16744;DHT22;71724;-33.900;151.182;2024-02-23T12:34:05;23.50;86.10
16744;DHT22;71724;-33.900;151.182;2024-02-23T12:36:36;23.60;86.20
16744;DHT22;71724;-33.900;151.182;2024-02-23T12:39:03;23.60;86.10
16744;DHT22;71724;-33.900;151.182;2024-02-23T12:41:31;23.40;85.70
16744;DHT22;71724;-33.900;151.182;2024-02-23T12:43:59;23.40;85.80
16744;DHT22;71724;-33.900;151.182;2024-02-23T12:46:26;23.30;85.90
16744;DHT22;71724;-33.900;151.182;2024-02-23T12:48:54;23.30;85.50
16744;DHT22;71724;-33.900;151.182;2024-02-23T12:51:25;23.30;86.00
16744;DHT22;71724;-33.900;151.182;2024-02-23T12:53:53;23.30;85.90
16744;DHT22;71724;-33.900;151.182;2024-02-23T12:56:21;23.30;85.70
16744;DHT22;71724;-33.900;151.182;2024-02-23T12:58:48;23.30;85.90
16744;DHT22;71724;-33.900;151.182;2024-02-23T13:01:16;23.30;85.90
16744;DHT22;71724;-33.900;151.182;2024-02-23T13:03:43;23.20;85.60
16744;DHT22;71724;-33.900;151.182;2024-02-23T13:06:11;23.20;85.90
16744;DHT22;71724;-33.900;151.182;2024-02-23T13:08:39;23.20;85.90
16744;DHT22;71724;-33.900;151.182;2024-02-23T13:11:09;23.10;85.20
16744;DHT22;71724;-33.900;151.182;2024-02-23T13:13:36;23.00;85.50
16744;DHT22;71724;-33.900;151.182;2024-02-23T13:16:04;23.00;85.20
16744;DHT22;71724;-33.900;151.182;2024-02-23T13:18:31;22.90;85.10
16744;DHT22;71724;-33.900;151.182;2024-02-23T13:20:58;22.80;85.10
16744;DHT22;71724;-33.900;151.182;2024-02-23T13:23:26;22.80;85.50
16744;DHT22;71724;-33.900;151.182;2024-02-23T13:25:53;22.80;85.30
16744;DHT22;71724;-33.900;151.182;2024-02-23T13:28:21;22.80;85.40
16744;DHT22;71724;-33.900;151.182;2024-02-23T13:30:48;22.80;85.40
16744;DHT22;71724;-33.900;151.182;2024-02-23T13:33:15;22.80;85.20
16744;DHT22;71724;-33.900;151.182;2024-02-23T13:35:44;22.70;85.50
16744;DHT22;71724;-33.900;151.182;2024-02-23T13:38:12;22.70;85.50
16744;DHT22;71724;-33.900;151.182;2024-02-23T13:40:39;22.70;85.80
16744;DHT22;71724;-33.900;151.182;2024-02-23T13:43:06;22.70;85.40
16744;DHT22;71724;-33.900;151.182;2024-02-23T13:45:49;22.60;85.20
16744;DHT22;71724;-33.900;151.182;2024-02-23T13:48:18;22.60;85.50
16744;DHT22;71724;-33.900;151.182;2024-02-23T13:50:46;22.60;85.20
16744;DHT22;71724;-33.900;151.182;2024-02-23T13:53:14;22.60;85.50
16744;DHT22;71724;-33.900;151.182;2024-02-23T13:55:42;22.50;85.00
16744;DHT22;71724;-33.900;151.182;2024-02-23T13:58:11;22.50;85.00
16744;DHT22;71724;-33.900;151.182;2024-02-23T14:00:39;22.40;85.20
16744;DHT22;71724;-33.900;151.182;2024-02-23T14:03:06;22.40;85.40
16744;DHT22;71724;-33.900;151.182;2024-02-23T14:05:34;22.40;85.60
16744;DHT22;71724;-33.900;151.182;2024-02-23T14:08:01;22.40;85.50
16744;DHT22;71724;-33.900;151.182;2024-02-23T14:10:29;22.50;85.60
16744;DHT22;71724;-33.900;151.182;2024-02-23T14:12:57;22.50;85.50
16744;DHT22;71724;-33.900;151.182;2024-02-23T14:15:25;22.50;85.80
16744;DHT22;71724;-33.900;151.182;2024-02-23T14:17:53;22.50;85.80
16744;DHT22;71724;-33.900;151.182;2024-02-23T14:20:21;22.40;85.60
16744;DHT22;71724;-33.900;151.182;2024-02-23T14:22:48;22.40;85.60
16744;DHT22;71724;-33.900;151.182;2024-02-23T14:25:17;22.40;85.60
16744;DHT22;71724;-33.900;151.182;2024-02-23T14:27:44;22.40;85.70
16744;DHT22;71724;-33.900;151.182;2024-02-23T14:30:11;22.40;85.90
16744;DHT22;71724;-33.900;151.182;2024-02-23T14:32:39;22.40;85.80
16744;DHT22;71724;-33.900;151.182;2024-02-23T14:35:09;22.40;85.70
16744;DHT22;71724;-33.900;151.182;2024-02-23T14:37:36;22.30;85.90
16744;DHT22;71724;-33.900;151.182;2024-02-23T14:40:03;22.40;85.70
16744;DHT22;71724;-33.900;151.182;2024-02-23T14:42:31;22.40;85.80
16744;DHT22;71724;-33.900;151.182;2024-02-23T14:44:59;22.40;85.50
16744;DHT22;71724;-33.900;151.182;2024-02-23T14:47:26;22.30;85.60
16744;DHT22;71724;-33.900;151.182;2024-02-23T14:49:53;22.30;85.70
16744;DHT22;71724;-33.900;151.182;2024-02-23T14:52:21;22.30;85.70